createdAt,value
2017-12-10T00:00:09.156Z,96959.14
2017-12-10T00:01:13.784Z,96941.43
2017-12-10T00:02:18.709Z,96954.20
2017-12-10T00:03:23.348Z,96935.92
2017-12-10T00:04:28.001Z,96939.71
2017-12-10T00:05:32.683Z,96946.75
2017-12-10T00:06:37.855Z,96941.00
2017-12-10T00:07:42.493Z,96945.96
2017-12-10T00:08:47.179Z,96943.47
2017-12-10T00:09:51.837Z,96935.20
2017-12-10T00:10:56.594Z,96934.31
2017-12-10T00:12:01.388Z,96927.02
2017-12-10T00:13:06.475Z,96941.67
2017-12-10T00:14:11.360Z,96939.24
2017-12-10T00:15:16.144Z,96942.00
2017-12-10T00:16:20.888Z,96936.13
2017-12-10T00:17:26.491Z,96932.47
2017-12-10T00:18:31.353Z,96925.92
2017-12-10T00:19:36.504Z,96920.09
2017-12-10T00:20:41.287Z,96926.22
2017-12-10T00:21:46.258Z,96930.41
2017-12-10T00:22:51.063Z,96914.80
2017-12-10T00:23:55.822Z,96925.81
2017-12-10T00:25:00.498Z,96916.37
2017-12-10T00:26:05.657Z,96915.84
2017-12-10T00:27:10.343Z,96912.94
2017-12-10T00:28:15.090Z,96919.17
2017-12-10T00:29:19.865Z,96909.33
2017-12-10T00:30:24.690Z,96904.33
2017-12-10T00:31:29.447Z,96906.35
2017-12-10T00:32:34.529Z,96897.31
2017-12-10T00:33:39.321Z,96903.56
2017-12-10T00:34:44.072Z,96890.76
2017-12-10T00:35:48.858Z,96895.36
2017-12-10T00:36:53.576Z,96886.61
2017-12-10T00:37:58.274Z,96896.45
2017-12-10T00:39:03.052Z,96896.34
2017-12-10T00:40:07.767Z,96893.00
2017-12-10T00:41:12.501Z,96881.07
2017-12-10T00:42:18.617Z,96883.98
2017-12-10T00:43:23.413Z,96889.30
2017-12-10T00:44:28.545Z,96888.11
2017-12-10T00:45:33.325Z,96888.41
2017-12-10T00:46:38.184Z,96883.48
2017-12-10T00:47:42.881Z,96878.92
2017-12-10T00:48:47.702Z,96877.80
2017-12-10T00:49:52.475Z,96882.66
2017-12-10T00:50:57.550Z,96870.63
2017-12-10T00:52:02.252Z,96857.53
2017-12-10T00:53:06.889Z,96871.08
2017-12-10T00:54:11.579Z,96850.98
2017-12-10T00:55:16.221Z,96857.95
2017-12-10T00:56:20.859Z,96855.87
2017-12-10T00:57:25.502Z,96854.63
2017-12-10T00:58:30.274Z,96864.91
2017-12-10T00:59:35.104Z,96852.45
2017-12-10T01:00:40.871Z,96853.76
2017-12-10T01:01:45.966Z,96838.43
2017-12-10T01:02:50.592Z,96834.08
2017-12-10T01:03:55.271Z,96815.13
2017-12-10T01:05:00.066Z,96829.94
2017-12-10T01:06:04.782Z,96853.83
2017-12-10T01:07:09.557Z,96848.84
2017-12-10T01:08:14.357Z,96841.04
2017-12-10T01:09:19.708Z,96829.51
2017-12-10T01:10:24.279Z,96821.77
2017-12-10T01:11:28.873Z,96819.77
2017-12-10T01:12:33.399Z,96827.20
2017-12-10T01:13:38.108Z,96826.32
2017-12-10T01:14:42.948Z,96818.09
2017-12-10T01:15:47.570Z,96804.09
2017-12-10T01:16:52.266Z,96811.88
2017-12-10T01:17:56.894Z,96808.55
2017-12-10T01:19:01.651Z,96807.79
2017-12-10T01:20:06.347Z,96807.34
2017-12-10T01:21:11.304Z,96779.96
2017-12-10T01:22:16.015Z,96804.61
2017-12-10T01:23:20.730Z,96802.08
2017-12-10T01:24:25.390Z,96809.09
2017-12-10T01:25:30.204Z,96800.86
2017-12-10T01:26:34.972Z,96787.95
2017-12-10T01:27:40.273Z,96789.85
2017-12-10T01:28:45.018Z,96793.63
2017-12-10T01:29:49.853Z,96800.94
2017-12-10T01:30:54.604Z,96771.92
2017-12-10T01:31:59.624Z,96786.98
2017-12-10T01:33:04.399Z,96793.20
2017-12-10T01:34:09.468Z,96791.47
2017-12-10T01:35:14.238Z,96787.03
2017-12-10T01:36:19.025Z,96783.40
2017-12-10T01:37:23.821Z,96790.38
2017-12-10T01:38:28.625Z,96785.87
2017-12-10T01:39:33.437Z,96783.35
2017-12-10T01:40:38.529Z,96772.70
2017-12-10T01:41:43.366Z,96781.62
2017-12-10T01:42:48.054Z,96777.49
2017-12-10T01:43:52.826Z,96779.96
2017-12-10T01:44:57.600Z,96778.70
2017-12-10T01:46:02.356Z,96748.48
2017-12-10T01:47:07.189Z,96775.50
2017-12-10T01:48:12.666Z,96762.05
2017-12-10T01:49:17.466Z,96752.33
2017-12-10T01:50:22.331Z,96757.23
2017-12-10T01:51:27.127Z,96749.44
2017-12-10T01:52:31.920Z,96743.05
2017-12-10T01:53:37.006Z,96747.53
2017-12-10T01:54:41.810Z,96747.66
2017-12-10T01:55:46.616Z,96744.78
2017-12-10T01:56:51.409Z,96742.22
2017-12-10T01:57:56.260Z,96746.75
2017-12-10T01:59:01.158Z,96751.69
2017-12-10T02:00:06.110Z,96758.68
2017-12-10T02:01:10.704Z,96747.61
2017-12-10T02:02:15.523Z,96743.12
2017-12-10T02:03:20.160Z,96734.16
2017-12-10T02:04:24.833Z,96736.20
2017-12-10T02:05:29.561Z,96743.50
2017-12-10T02:06:35.081Z,96742.59
2017-12-10T02:07:40.701Z,96737.69
2017-12-10T02:08:46.508Z,96747.16
2017-12-10T02:09:51.335Z,96732.69
2017-12-10T02:10:56.214Z,96737.64
2017-12-10T02:12:00.991Z,96738.14
2017-12-10T02:13:06.042Z,96731.57
2017-12-10T02:14:10.790Z,96743.98
2017-12-10T02:15:15.679Z,96723.84
2017-12-10T02:16:20.500Z,96739.47
2017-12-10T02:17:25.206Z,96733.66
2017-12-10T02:18:29.949Z,96727.97
2017-12-10T02:19:34.988Z,96725.05
2017-12-10T02:20:39.745Z,96731.66
2017-12-10T02:21:44.514Z,96723.84
2017-12-10T02:22:49.321Z,96714.47
2017-12-10T02:23:54.140Z,96718.53
2017-12-10T02:24:58.860Z,96716.72
2017-12-10T02:26:03.921Z,96702.44
2017-12-10T02:27:08.677Z,96668.08
2017-12-10T02:28:13.554Z,96698.73
2017-12-10T02:29:18.419Z,96692.67
2017-12-10T02:30:23.180Z,96676.11
2017-12-10T02:31:27.969Z,96699.22
2017-12-10T02:32:33.066Z,96678.23
2017-12-10T02:33:38.827Z,96676.06
2017-12-10T02:34:43.458Z,96676.11
2017-12-10T02:35:48.123Z,96673.62
2017-12-10T02:36:52.713Z,96660.43
2017-12-10T02:37:57.319Z,96664.16
2017-12-10T02:39:02.409Z,96646.45
2017-12-10T02:40:07.302Z,96650.97
2017-12-10T02:41:11.991Z,96656.25
2017-12-10T02:42:16.723Z,96647.72
2017-12-10T02:43:21.400Z,96655.95
2017-12-10T02:44:26.098Z,96655.57
2017-12-10T02:45:31.239Z,96648.14
2017-12-10T02:46:35.925Z,96648.36
2017-12-10T02:47:40.643Z,96643.80
2017-12-10T02:48:45.343Z,96637.70
2017-12-10T02:49:50.018Z,96636.00
2017-12-10T02:50:54.718Z,96628.30
2017-12-10T02:51:59.787Z,96623.17
2017-12-10T02:53:04.516Z,96628.05
2017-12-10T02:54:09.140Z,96626.64
2017-12-10T02:55:13.763Z,96614.72
2017-12-10T02:56:18.447Z,96613.08
2017-12-10T02:57:23.075Z,96610.92
2017-12-10T02:58:28.219Z,96614.27
2017-12-10T02:59:32.967Z,96605.66
2017-12-10T03:00:38.635Z,96596.32
2017-12-10T03:01:43.412Z,96594.97
2017-12-10T03:02:48.309Z,96593.80
2017-12-10T03:03:53.114Z,96608.17
2017-12-10T03:04:58.171Z,96603.64
2017-12-10T03:06:03.126Z,96597.16
2017-12-10T03:07:07.914Z,96594.28
2017-12-10T03:08:12.713Z,96586.94
2017-12-10T03:09:18.464Z,96597.91
2017-12-10T03:10:23.380Z,96578.55
2017-12-10T03:11:28.416Z,96570.96
2017-12-10T03:12:33.070Z,96566.51
2017-12-10T03:13:37.814Z,96564.84
2017-12-10T03:14:42.604Z,96549.38
2017-12-10T03:15:47.340Z,96557.53
2017-12-10T03:16:51.956Z,96556.59
2017-12-10T03:17:56.862Z,96553.67
2017-12-10T03:19:01.502Z,96543.05
2017-12-10T03:20:06.329Z,96552.57
2017-12-10T03:21:11.101Z,96557.00
2017-12-10T03:22:16.327Z,96564.02
2017-12-10T03:23:20.981Z,96551.28
2017-12-10T03:24:26.015Z,96558.69
2017-12-10T03:25:30.700Z,96552.89
2017-12-10T03:26:35.653Z,96558.20
2017-12-10T03:27:40.374Z,96548.64
2017-12-10T03:28:45.070Z,96552.74
2017-12-10T03:29:49.683Z,96548.52
2017-12-10T03:30:54.569Z,96557.52
2017-12-10T03:31:59.202Z,96552.16
2017-12-10T03:33:03.795Z,96544.73
2017-12-10T03:34:08.425Z,96549.06
2017-12-10T03:35:13.077Z,96546.95
2017-12-10T03:36:18.253Z,96528.77
2017-12-10T03:37:23.244Z,96535.42
2017-12-10T03:38:27.970Z,96530.83
2017-12-10T03:39:32.751Z,96517.24
2017-12-10T03:40:37.396Z,96532.05
2017-12-10T03:41:42.076Z,96510.67
2017-12-10T03:42:46.675Z,96505.71
2017-12-10T03:43:51.556Z,96492.15
2017-12-10T03:44:56.167Z,96505.98
2017-12-10T03:46:00.867Z,96488.34
2017-12-10T03:47:05.538Z,96499.06
2017-12-10T03:48:10.292Z,96509.63
2017-12-10T03:49:15.928Z,96513.25
2017-12-10T03:50:20.782Z,96491.23
2017-12-10T03:51:25.379Z,96493.16
2017-12-10T03:52:29.910Z,96493.56
2017-12-10T03:53:34.611Z,96496.76
2017-12-10T03:54:39.306Z,96491.80
2017-12-10T03:55:44.012Z,96467.16
2017-12-10T03:56:49.080Z,96484.69
2017-12-10T03:57:54.539Z,96491.98
2017-12-10T03:58:59.220Z,96486.27
2017-12-10T04:00:03.872Z,96479.64
2017-12-10T04:01:09.028Z,96470.17
2017-12-10T04:02:13.723Z,96470.66
2017-12-10T04:03:18.673Z,96468.20
2017-12-10T04:04:23.348Z,96459.59
2017-12-10T04:05:27.958Z,96463.53
2017-12-10T04:06:32.513Z,96452.39
2017-12-10T04:07:37.100Z,96456.95
2017-12-10T04:08:41.794Z,96456.16
2017-12-10T04:09:46.503Z,96461.89
2017-12-10T04:10:51.145Z,96449.47
2017-12-10T04:11:55.807Z,96453.23
2017-12-10T04:13:00.482Z,96441.83
2017-12-10T04:14:05.350Z,96439.37
2017-12-10T04:15:10.369Z,96438.77
2017-12-10T04:16:15.075Z,96445.37
2017-12-10T04:17:19.812Z,96444.91
2017-12-10T04:18:24.511Z,96430.62
2017-12-10T04:19:29.215Z,96444.85
2017-12-10T04:20:33.870Z,96437.88
2017-12-10T04:21:38.870Z,96433.00
2017-12-10T04:22:43.548Z,96430.94
2017-12-10T04:23:48.251Z,96431.66
2017-12-10T04:24:52.971Z,96418.57
2017-12-10T04:25:57.652Z,96432.92
2017-12-10T04:27:02.369Z,96413.63
2017-12-10T04:28:07.441Z,96420.47
2017-12-10T04:29:12.244Z,96422.10
2017-12-10T04:30:17.159Z,96424.59
2017-12-10T04:31:21.958Z,96408.50
2017-12-10T04:32:26.626Z,96421.98
2017-12-10T04:33:32.217Z,96429.45
2017-12-10T04:34:37.219Z,96406.87
2017-12-10T04:35:41.902Z,96399.46
2017-12-10T04:36:46.585Z,96406.95
2017-12-10T04:37:51.314Z,96409.36
2017-12-10T04:38:56.114Z,96406.03
2017-12-10T04:40:00.905Z,96410.97
2017-12-10T04:41:05.958Z,96401.81
2017-12-10T04:42:10.625Z,96404.66
2017-12-10T04:43:15.342Z,96399.75
2017-12-10T04:44:20.084Z,96399.38
2017-12-10T04:45:24.892Z,96395.19
2017-12-10T04:46:40.434Z,96396.08
2017-12-10T04:47:45.392Z,96382.78
2017-12-10T04:48:50.048Z,96382.30
2017-12-10T04:49:55.855Z,96377.42
2017-12-10T04:51:01.519Z,96387.17
2017-12-10T04:52:06.245Z,96375.70
2017-12-10T04:53:10.869Z,96381.41
2017-12-10T04:54:15.735Z,96368.38
2017-12-10T04:55:20.471Z,96370.48
2017-12-10T04:56:25.447Z,96376.09
2017-12-10T04:57:30.161Z,96364.09
2017-12-10T04:58:34.919Z,96360.00
2017-12-10T04:59:39.645Z,96357.53
2017-12-10T05:00:44.604Z,96357.22
2017-12-10T05:01:49.298Z,96351.88
2017-12-10T05:02:53.996Z,96348.48
2017-12-10T05:03:58.725Z,96341.45
2017-12-10T05:05:03.544Z,96349.70
2017-12-10T05:06:08.348Z,96332.88
2017-12-10T05:07:13.599Z,96339.82
2017-12-10T05:08:19.352Z,96338.16
2017-12-10T05:09:24.013Z,96330.30
2017-12-10T05:10:28.738Z,96307.34
2017-12-10T05:11:33.388Z,96314.80
2017-12-10T05:12:38.155Z,96321.31
2017-12-10T05:13:43.086Z,96319.62
2017-12-10T05:14:47.765Z,96304.37
2017-12-10T05:15:52.537Z,96312.16
2017-12-10T05:16:57.314Z,96301.11
2017-12-10T05:18:02.026Z,96305.05
2017-12-10T05:19:06.734Z,96299.44
2017-12-10T05:20:11.774Z,96297.41
2017-12-10T05:21:16.521Z,96291.52
2017-12-10T05:22:21.371Z,96286.02
2017-12-10T05:23:26.158Z,96290.31
2017-12-10T05:24:30.816Z,96282.07
2017-12-10T05:25:35.518Z,96262.57
2017-12-10T05:26:40.518Z,96263.93
2017-12-10T05:27:45.208Z,96247.61
2017-12-10T05:28:49.814Z,96241.84
2017-12-10T05:29:54.407Z,96244.19
2017-12-10T05:30:59.041Z,96240.98
2017-12-10T05:32:03.657Z,96238.48
2017-12-10T05:33:08.645Z,96241.02
2017-12-10T05:34:13.215Z,96237.98
2017-12-10T05:35:17.794Z,96233.98
2017-12-10T05:36:22.441Z,96230.70
2017-12-10T05:37:27.160Z,96233.67
2017-12-10T05:38:32.721Z,96233.14
2017-12-10T05:39:37.713Z,96223.77
2017-12-10T05:40:42.445Z,96229.88
2017-12-10T05:41:48.764Z,96223.83
2017-12-10T05:42:53.487Z,96219.59
2017-12-10T05:43:58.413Z,96216.39
2017-12-10T05:45:03.417Z,96210.47
2017-12-10T05:46:08.240Z,96204.30
2017-12-10T05:47:13.092Z,96205.56
2017-12-10T05:48:17.877Z,96191.59
2017-12-10T05:49:22.712Z,96197.39
2017-12-10T05:50:27.992Z,96187.08
2017-12-10T05:51:33.159Z,96192.76
2017-12-10T05:52:37.961Z,96185.81
2017-12-10T05:53:42.814Z,96177.82
2017-12-10T05:54:47.641Z,96179.22
2017-12-10T05:55:52.493Z,96178.52
2017-12-10T05:56:57.252Z,96169.66
2017-12-10T05:58:02.354Z,96171.82
2017-12-10T05:59:07.096Z,96163.18
2017-12-10T06:00:12.229Z,96157.38
2017-12-10T06:01:17.036Z,96153.47
2017-12-10T06:02:21.807Z,96149.27
2017-12-10T06:03:26.504Z,96144.83
2017-12-10T06:04:31.517Z,96136.36
2017-12-10T06:05:36.300Z,96139.90
2017-12-10T06:06:41.081Z,96129.22
2017-12-10T06:07:45.847Z,96123.02
2017-12-10T06:08:50.646Z,96124.09
2017-12-10T06:09:55.501Z,96130.33
2017-12-10T06:11:00.602Z,96117.15
2017-12-10T06:12:05.394Z,96114.65
2017-12-10T06:13:11.230Z,96111.81
2017-12-10T06:14:15.886Z,96108.41
2017-12-10T06:15:20.636Z,96106.27
2017-12-10T06:16:25.324Z,96102.23
2017-12-10T06:17:30.289Z,96096.91
2017-12-10T06:18:35.007Z,96095.70
2017-12-10T06:19:39.768Z,96092.40
2017-12-10T06:20:44.577Z,96090.23
2017-12-10T06:21:49.424Z,96085.36
2017-12-10T06:22:54.224Z,96081.98
2017-12-10T06:23:59.377Z,96083.29
2017-12-10T06:25:04.031Z,96075.22
2017-12-10T06:26:08.740Z,96074.65
2017-12-10T06:27:13.445Z,96079.86
2017-12-10T06:28:18.189Z,96065.65
2017-12-10T06:29:22.942Z,96061.52
2017-12-10T06:30:27.930Z,96059.91
2017-12-10T06:31:32.744Z,96062.34
2017-12-10T06:32:37.515Z,96053.84
2017-12-10T06:33:42.193Z,96050.11
2017-12-10T06:34:46.962Z,96051.64
2017-12-10T06:35:51.703Z,96048.54
2017-12-10T06:36:56.757Z,96045.97
2017-12-10T06:38:01.401Z,96032.39
2017-12-10T06:39:06.106Z,96036.42
2017-12-10T06:40:10.773Z,96022.75
2017-12-10T06:41:15.370Z,96028.88
2017-12-10T06:42:19.983Z,96017.77
2017-12-10T06:43:25.021Z,96018.61
2017-12-10T06:44:29.733Z,96011.66
2017-12-10T06:45:34.444Z,96005.41
2017-12-10T06:46:39.164Z,96006.55
2017-12-10T06:47:43.902Z,95997.71
2017-12-10T06:48:48.668Z,95998.27
2017-12-10T06:49:53.560Z,95999.58
2017-12-10T06:50:58.200Z,95987.67
2017-12-10T06:52:02.798Z,95970.39
2017-12-10T06:53:07.433Z,95978.86
2017-12-10T06:54:12.061Z,95969.33
2017-12-10T06:55:16.637Z,95971.33
2017-12-10T06:56:21.537Z,95971.08
2017-12-10T06:57:26.129Z,95956.71
2017-12-10T06:58:30.831Z,95961.86
2017-12-10T06:59:35.542Z,95964.98
2017-12-10T07:00:40.462Z,95965.85
2017-12-10T07:01:45.150Z,95971.33
2017-12-10T07:02:50.166Z,95972.16
2017-12-10T07:03:54.877Z,95958.30
2017-12-10T07:04:59.641Z,95964.87
2017-12-10T07:06:04.414Z,95961.59
2017-12-10T07:07:09.235Z,95962.10
2017-12-10T07:08:14.022Z,95954.16
2017-12-10T07:09:18.998Z,95954.34
2017-12-10T07:10:23.722Z,95957.25
2017-12-10T07:11:29.373Z,95951.95
2017-12-10T07:12:34.009Z,95958.02
2017-12-10T07:13:38.709Z,95949.30
2017-12-10T07:14:43.402Z,95949.08
2017-12-10T07:15:48.451Z,95948.69
2017-12-10T07:16:53.146Z,95959.49
2017-12-10T07:17:57.822Z,95933.95
2017-12-10T07:19:02.569Z,95932.23
2017-12-10T07:20:07.286Z,95941.31
2017-12-10T07:21:13.492Z,95933.65
2017-12-10T07:22:18.334Z,95927.84
2017-12-10T07:23:23.376Z,95925.02
2017-12-10T07:24:28.228Z,95913.41
2017-12-10T07:25:33.062Z,95921.57
2017-12-10T07:26:38.175Z,95916.89
2017-12-10T07:27:43.354Z,95918.81
2017-12-10T07:28:48.169Z,95911.92
2017-12-10T07:29:52.992Z,95907.02
2017-12-10T07:30:57.881Z,95899.25
2017-12-10T07:32:02.692Z,95894.82
2017-12-10T07:33:07.453Z,95888.76
2017-12-10T07:34:12.558Z,95882.48
2017-12-10T07:35:17.300Z,95878.78
2017-12-10T07:36:22.079Z,95877.58
2017-12-10T07:37:26.888Z,95874.89
2017-12-10T07:38:31.706Z,95862.16
2017-12-10T07:39:36.511Z,95859.65
2017-12-10T07:40:41.597Z,95846.48
2017-12-10T07:41:46.440Z,95836.47
2017-12-10T07:42:51.270Z,95843.54
2017-12-10T07:43:56.087Z,95840.05
2017-12-10T07:45:00.923Z,95836.20
2017-12-10T07:46:05.733Z,95843.17
2017-12-10T07:47:11.026Z,95834.90
2017-12-10T07:48:15.855Z,95837.98
2017-12-10T07:49:20.655Z,95828.51
2017-12-10T07:50:25.348Z,95826.80
2017-12-10T07:51:30.079Z,95807.02
2017-12-10T07:52:34.736Z,95812.39
2017-12-10T07:53:39.828Z,95804.48
2017-12-10T07:54:44.559Z,95799.62
2017-12-10T07:55:50.001Z,95788.80
2017-12-10T07:56:54.899Z,95788.33
2017-12-10T07:58:01.506Z,95784.63
2017-12-10T07:59:06.721Z,95783.53
2017-12-10T08:00:12.116Z,95786.80
2017-12-10T08:01:16.927Z,95768.22
2017-12-10T08:02:21.697Z,95767.50
2017-12-10T08:03:26.512Z,95763.37
2017-12-10T08:04:32.119Z,95760.56
2017-12-10T08:05:38.246Z,95761.28
2017-12-10T08:06:43.071Z,95757.95
2017-12-10T08:07:47.892Z,95757.91
2017-12-10T08:08:52.786Z,95751.34
2017-12-10T08:09:57.562Z,95752.58
2017-12-10T08:11:02.360Z,95752.36
2017-12-10T08:12:07.691Z,95746.95
2017-12-10T08:13:12.470Z,95746.00
2017-12-10T08:14:17.295Z,95733.70
2017-12-10T08:15:22.034Z,95718.45
2017-12-10T08:16:26.747Z,95721.05
2017-12-10T08:17:31.379Z,95722.65
2017-12-10T08:18:36.608Z,95710.53
2017-12-10T08:19:41.465Z,95708.55
2017-12-10T08:20:46.043Z,95710.82
2017-12-10T08:21:51.980Z,95708.75
2017-12-10T08:22:56.940Z,95702.84
2017-12-10T08:24:01.803Z,95705.09
2017-12-10T08:25:06.901Z,95694.78
2017-12-10T08:26:13.538Z,95694.61
2017-12-10T08:27:18.345Z,95690.55
2017-12-10T08:28:23.157Z,95679.00
2017-12-10T08:29:27.964Z,95666.15
2017-12-10T08:30:33.212Z,95664.94
2017-12-10T08:31:38.312Z,95646.80
2017-12-10T08:32:43.130Z,95658.02
2017-12-10T08:33:47.972Z,95646.59
2017-12-10T08:34:52.833Z,95649.03
2017-12-10T08:35:57.734Z,95641.11
2017-12-10T08:37:02.731Z,95633.55
2017-12-10T08:38:07.972Z,95628.89
2017-12-10T08:39:12.905Z,95626.14
2017-12-10T08:40:17.725Z,95630.08
2017-12-10T08:41:22.579Z,95621.95
2017-12-10T08:42:27.444Z,95619.02
2017-12-10T08:43:32.300Z,95619.49
2017-12-10T08:44:37.619Z,95611.93
2017-12-10T08:45:42.465Z,95608.27
2017-12-10T08:46:48.296Z,95596.48
2017-12-10T08:47:53.191Z,95591.91
2017-12-10T08:48:58.025Z,95585.14
2017-12-10T08:50:02.942Z,95575.73
2017-12-10T08:51:08.194Z,95575.66
2017-12-10T08:52:13.052Z,95571.56
2017-12-10T08:53:17.887Z,95565.95
2017-12-10T08:54:22.735Z,95559.23
2017-12-10T08:55:27.679Z,95546.29
2017-12-10T08:56:32.514Z,95549.91
2017-12-10T08:57:37.807Z,95557.99
2017-12-10T08:58:43.298Z,95547.80
2017-12-10T08:59:48.100Z,95534.39
2017-12-10T09:00:52.963Z,95537.57
2017-12-10T09:01:57.891Z,95529.21
2017-12-10T09:03:02.777Z,95517.70
2017-12-10T09:04:08.530Z,95506.80
2017-12-10T09:05:13.429Z,95502.58
2017-12-10T09:06:18.391Z,95511.37
2017-12-10T09:07:23.243Z,95507.08
2017-12-10T09:08:28.085Z,95492.71
2017-12-10T09:09:33.022Z,95492.75
2017-12-10T09:10:38.251Z,95493.15
2017-12-10T09:11:43.153Z,95496.05
2017-12-10T09:12:48.006Z,95493.78
2017-12-10T09:13:52.834Z,95487.28
2017-12-10T09:14:57.703Z,95471.29
2017-12-10T09:16:02.510Z,95465.06
2017-12-10T09:17:08.116Z,95464.70
2017-12-10T09:18:13.098Z,95459.90
2017-12-10T09:19:17.984Z,95455.00
2017-12-10T09:20:22.963Z,95439.27
2017-12-10T09:21:27.709Z,95456.38
2017-12-10T09:22:32.493Z,95440.42
2017-12-10T09:23:37.590Z,95432.92
2017-12-10T09:24:42.337Z,95419.83
2017-12-10T09:25:47.113Z,95403.20
2017-12-10T09:26:51.993Z,95393.20
2017-12-10T09:27:56.658Z,95402.11
2017-12-10T09:29:01.366Z,95398.36
2017-12-10T09:30:06.300Z,95377.70
2017-12-10T09:31:10.966Z,95375.72
2017-12-10T09:32:15.562Z,95375.19
2017-12-10T09:33:20.329Z,95343.27
2017-12-10T09:34:24.994Z,95357.64
2017-12-10T09:35:29.838Z,95335.69
2017-12-10T09:36:34.853Z,95333.78
2017-12-10T09:37:39.580Z,95322.67
2017-12-10T09:38:44.436Z,95335.45
2017-12-10T09:39:49.275Z,95329.02
2017-12-10T09:40:54.987Z,95315.31
2017-12-10T09:41:59.867Z,95320.11
2017-12-10T09:43:05.090Z,95312.58
2017-12-10T09:44:10.039Z,95321.52
2017-12-10T09:45:14.929Z,95283.77
2017-12-10T09:46:19.777Z,95313.59
2017-12-10T09:47:24.690Z,95262.63
2017-12-10T09:48:29.536Z,95288.73
2017-12-10T09:49:34.634Z,95295.34
2017-12-10T09:50:39.510Z,95286.97
2017-12-10T09:51:44.403Z,95287.63
2017-12-10T09:52:49.335Z,95290.23
2017-12-10T09:53:54.175Z,95288.21
2017-12-10T09:55:00.024Z,95261.03
2017-12-10T09:56:05.069Z,95297.14
2017-12-10T09:57:09.980Z,95284.07
2017-12-10T09:58:14.882Z,95285.04
2017-12-10T09:59:19.710Z,95285.34
2017-12-10T10:00:24.571Z,95278.83
2017-12-10T10:01:29.452Z,95271.87
2017-12-10T10:02:34.569Z,95267.47
2017-12-10T10:03:39.402Z,95258.00
2017-12-10T10:04:44.264Z,95240.30
2017-12-10T10:05:49.046Z,95242.45
2017-12-10T10:06:53.835Z,95210.87
2017-12-10T10:07:59.036Z,95206.51
2017-12-10T10:09:04.981Z,95208.41
2017-12-10T10:10:09.850Z,95204.08
2017-12-10T10:11:14.741Z,95201.17
2017-12-10T10:12:19.606Z,95178.84
2017-12-10T10:13:24.493Z,95180.03
2017-12-10T10:14:29.363Z,95167.04
2017-12-10T10:15:34.857Z,95184.35
2017-12-10T10:16:39.772Z,95170.52
2017-12-10T10:17:44.545Z,95152.02
2017-12-10T10:18:49.321Z,95164.98
2017-12-10T10:19:54.029Z,95158.07
2017-12-10T10:20:58.791Z,95152.34
2017-12-10T10:22:03.852Z,95138.73
2017-12-10T10:23:08.774Z,95130.59
2017-12-10T10:24:13.880Z,95121.43
2017-12-10T10:25:18.780Z,95132.92
2017-12-10T10:26:24.587Z,95121.13
2017-12-10T10:27:29.480Z,95122.27
2017-12-10T10:28:34.341Z,95120.16
2017-12-10T10:29:39.196Z,95105.19
2017-12-10T10:30:44.083Z,95096.56
2017-12-10T10:31:49.018Z,95091.63
2017-12-10T10:32:53.756Z,95083.31
2017-12-10T10:33:58.573Z,95069.09
2017-12-10T10:35:03.601Z,95080.36
2017-12-10T10:36:08.282Z,95072.48
2017-12-10T10:37:12.989Z,95064.56
2017-12-10T10:38:17.740Z,95038.34
2017-12-10T10:39:22.448Z,95048.03
2017-12-10T10:40:27.432Z,95038.30
2017-12-10T10:41:32.631Z,95029.11
2017-12-10T10:42:37.600Z,95000.16
2017-12-10T10:43:42.423Z,95022.86
2017-12-10T10:44:47.411Z,95014.81
2017-12-10T10:45:52.376Z,95000.94
2017-12-10T10:46:57.258Z,94984.58
2017-12-10T10:48:02.468Z,94953.03
2017-12-10T10:49:07.333Z,94966.73
2017-12-10T10:50:13.244Z,94949.53
2017-12-10T10:51:18.181Z,94953.28
2017-12-10T10:52:23.080Z,94919.17
2017-12-10T10:53:29.627Z,94912.80
2017-12-10T10:54:34.993Z,94912.67
2017-12-10T10:55:39.931Z,94931.53
2017-12-10T10:56:44.863Z,94900.98
2017-12-10T10:57:49.817Z,94851.44
2017-12-10T10:58:54.674Z,94896.31
2017-12-10T11:00:05.115Z,94908.59
2017-12-10T11:01:11.513Z,94892.59
2017-12-10T11:02:17.060Z,94862.67
2017-12-10T11:03:22.021Z,94873.72
2017-12-10T11:04:26.964Z,94846.78
2017-12-10T11:05:31.969Z,94863.15
2017-12-10T11:06:37.147Z,94828.80
2017-12-10T11:07:42.070Z,94843.89
2017-12-10T11:08:47.013Z,94813.01
2017-12-10T11:09:51.980Z,94800.83
2017-12-10T11:10:57.220Z,94827.13
2017-12-10T11:12:02.054Z,94817.68
2017-12-10T11:13:08.780Z,94790.66
2017-12-10T11:14:14.464Z,94821.56
2017-12-10T11:15:20.409Z,94792.80
2017-12-10T11:16:25.228Z,94739.12
2017-12-10T11:17:30.038Z,94728.53
2017-12-10T11:18:34.860Z,94774.44
2017-12-10T11:19:39.981Z,94730.86
2017-12-10T11:20:44.750Z,94735.69
2017-12-10T11:21:49.605Z,94731.88
2017-12-10T11:22:54.453Z,94731.48
2017-12-10T11:23:59.353Z,94707.61
2017-12-10T11:25:04.219Z,94709.92
2017-12-10T11:26:09.453Z,94683.03
2017-12-10T11:27:14.314Z,94696.48
2017-12-10T11:28:19.157Z,94694.46
2017-12-10T11:29:23.987Z,94697.02
2017-12-10T11:30:29.002Z,94719.97
2017-12-10T11:31:33.805Z,94677.55
2017-12-10T11:32:38.966Z,94701.27
2017-12-10T11:33:43.819Z,94693.58
2017-12-10T11:34:48.648Z,94683.76
2017-12-10T11:35:53.499Z,94684.31
2017-12-10T11:36:58.396Z,94659.72
2017-12-10T11:38:03.292Z,94663.81
2017-12-10T11:39:08.401Z,94665.78
2017-12-10T11:40:13.397Z,94686.16
2017-12-10T11:41:18.297Z,94692.55
2017-12-10T11:42:23.516Z,94685.27
2017-12-10T11:43:28.367Z,94675.56
2017-12-10T11:44:33.353Z,94678.95
2017-12-10T11:45:38.540Z,94682.02
2017-12-10T11:46:43.415Z,94673.50
2017-12-10T11:47:48.330Z,94673.30
2017-12-10T11:48:53.280Z,94677.77
2017-12-10T11:49:58.142Z,94665.52
2017-12-10T11:51:03.136Z,94640.81
2017-12-10T11:52:08.320Z,94614.61
2017-12-10T11:53:13.265Z,94628.41
2017-12-10T11:54:18.230Z,94632.98
2017-12-10T11:55:23.122Z,94574.55
2017-12-10T11:56:28.021Z,94642.97
2017-12-10T11:57:32.925Z,94617.17
2017-12-10T11:58:38.151Z,94612.01
2017-12-10T11:59:43.061Z,94621.91
2017-12-10T12:00:47.996Z,94590.30
2017-12-10T12:01:52.944Z,94604.03
2017-12-10T12:02:57.972Z,94559.10
2017-12-10T12:04:03.017Z,94567.06
2017-12-10T12:05:08.149Z,94513.67
2017-12-10T12:06:12.944Z,94472.96
2017-12-10T12:07:17.780Z,94452.98
2017-12-10T12:08:22.624Z,94469.27
2017-12-10T12:09:28.239Z,94492.65
2017-12-10T12:10:33.179Z,94501.91
2017-12-10T12:11:38.404Z,94417.30
2017-12-10T12:12:43.281Z,94492.25
2017-12-10T12:13:48.219Z,94438.95
2017-12-10T12:14:53.061Z,94490.97
2017-12-10T12:15:57.988Z,94533.16
2017-12-10T12:17:02.973Z,94529.31
2017-12-10T12:18:08.215Z,94464.10
2017-12-10T12:19:13.433Z,94505.10
2017-12-10T12:20:18.442Z,94525.82
2017-12-10T12:21:23.394Z,94539.41
2017-12-10T12:22:28.337Z,94514.64
2017-12-10T12:23:33.289Z,94506.63
2017-12-10T12:24:38.567Z,94494.71
2017-12-10T12:25:43.636Z,94497.02
2017-12-10T12:26:48.630Z,94514.69
2017-12-10T12:27:53.886Z,94523.20
2017-12-10T12:28:58.803Z,94516.41
2017-12-10T12:30:03.727Z,94515.23
2017-12-10T12:31:09.047Z,94514.20
2017-12-10T12:32:13.948Z,94515.38
2017-12-10T12:33:18.834Z,94464.98
2017-12-10T12:34:23.768Z,94508.05
2017-12-10T12:35:28.688Z,94497.22
2017-12-10T12:36:33.909Z,94506.03
2017-12-10T12:37:39.114Z,94506.37
2017-12-10T12:38:44.002Z,94498.06
2017-12-10T12:39:48.927Z,94471.62
2017-12-10T12:40:53.829Z,94462.08
2017-12-10T12:41:58.775Z,94472.02